Time;durP1;ratioP1;P1;durP2;ratioP2;P2;SDS_P1;SDS_P2;PMS_P1;PMS_P2;Temp;Humidity;BMP_temperature;BMP_pressure;BME280_temperature;BME280_humidity;BME280_pressure;Samples;Min_cycle;Max_cycle;Signal;HPM_P1;HPM_P2
2024/03/22 00:00:43;;;;;;;25.40;22.40;;;9.70;99.90;;;;;;5075585;28;20036;-63
2024/03/22 00:03:09;;;;;;;24.30;21.90;;;9.70;99.90;;;;;;5077716;28;20047;-63
2024/03/22 00:05:35;;;;;;;27.05;24.35;;;9.70;99.90;;;;;;5091904;28;20043;-63
2024/03/22 00:08:01;;;;;;;29.88;26.13;;;9.70;99.90;;;;;;5080307;28;20092;-63
2024/03/22 00:10:26;;;;;;;27.63;24.80;;;9.70;99.90;;;;;;5097468;28;20416;-63
2024/03/22 00:12:52;;;;;;;27.25;24.50;;;9.70;99.90;;;;;;5098414;28;20547;-63
2024/03/22 00:15:18;;;;;;;27.85;24.85;;;9.70;99.90;;;;;;5087979;28;20068;-63
2024/03/22 00:17:45;;;;;;;28.95;25.13;;;9.70;99.90;;;;;;5092168;28;20035;-63
2024/03/22 00:20:11;;;;;;;29.02;25.92;;;9.70;99.90;;;;;;5095303;28;20042;-63
2024/03/22 00:22:36;;;;;;;29.95;26.70;;;9.80;99.90;;;;;;5091106;28;20044;-63
2024/03/22 00:25:02;;;;;;;29.38;26.58;;;9.80;99.90;;;;;;5074659;28;20067;-64
2024/03/22 00:27:28;;;;;;;30.15;27.05;;;9.80;99.90;;;;;;5097030;28;20036;-63
2024/03/22 00:29:54;;;;;;;37.28;30.55;;;9.80;99.90;;;;;;5092904;28;20043;-63
2024/03/22 00:32:21;;;;;;;30.83;27.55;;;9.80;99.90;;;;;;5081790;28;20044;-64
2024/03/22 00:34:46;;;;;;;33.13;29.63;;;9.80;99.90;;;;;;5088567;28;20060;-63
2024/03/22 00:37:12;;;;;;;33.53;29.25;;;9.80;99.90;;;;;;5093650;28;21345;-63
2024/03/22 00:39:38;;;;;;;32.08;28.55;;;9.80;99.90;;;;;;5095882;28;20038;-63
2024/03/22 00:42:04;;;;;;;32.40;29.00;;;9.80;99.90;;;;;;5094723;28;20036;-63
2024/03/22 00:44:29;;;;;;;32.38;28.63;;;9.80;99.90;;;;;;5080111;28;20036;-63
2024/03/22 00:46:55;;;;;;;34.90;30.17;;;9.80;99.90;;;;;;5094969;28;20088;-64
2024/03/22 00:49:21;;;;;;;32.38;28.98;;;9.80;99.90;;;;;;5095566;28;20153;-63
2024/03/22 00:51:47;;;;;;;33.15;29.58;;;9.90;99.90;;;;;;5074790;28;20123;-64
2024/03/22 00:54:13;;;;;;;34.90;31.13;;;9.90;99.90;;;;;;5091185;28;20558;-64
2024/03/22 00:56:38;;;;;;;33.67;30.13;;;9.90;99.90;;;;;;5096473;28;20028;-63
2024/03/22 00:59:04;;;;;;;35.47;31.75;;;9.90;99.90;;;;;;5080006;28;20068;-63
2024/03/22 01:01:30;;;;;;;35.78;30.88;;;9.90;99.90;;;;;;5093926;28;20032;-64
2024/03/22 01:03:56;;;;;;;35.83;32.08;;;10.00;99.90;;;;;;5092776;28;20036;-64
2024/03/22 01:06:24;;;;;;;35.90;32.05;;;9.90;99.90;;;;;;5090447;28;20092;-63
2024/03/22 01:08:51;;;;;;;38.95;33.90;;;9.90;99.90;;;;;;5091680;28;20057;-63
2024/03/22 01:11:18;;;;;;;36.55;31.50;;;9.90;99.90;;;;;;5088440;28;20431;-63
2024/03/22 01:13:44;;;;;;;38.53;32.22;;;9.90;99.90;;;;;;5076667;28;20052;-64
2024/03/22 01:16:09;;;;;;;40.67;33.40;;;10.00;99.90;;;;;;5079288;28;20048;-63
2024/03/22 01:18:36;;;;;;;36.92;32.45;;;9.90;99.90;;;;;;5091860;28;20051;-64
2024/03/22 01:21:02;;;;;;;39.00;34.92;;;10.00;99.90;;;;;;5093866;28;20056;-63
2024/03/22 01:23:28;;;;;;;38.58;33.15;;;10.00;99.90;;;;;;5096298;28;20040;-64
2024/03/22 01:25:54;;;;;;;39.85;33.15;;;10.00;99.90;;;;;;5079801;28;20657;-64
2024/03/22 01:28:19;;;;;;;38.72;33.45;;;10.00;99.90;;;;;;5077324;28;20138;-63
2024/03/22 01:30:45;;;;;;;40.88;34.70;;;10.00;99.90;;;;;;5097314;28;20162;-63
2024/03/22 01:33:11;;;;;;;40.47;35.13;;;10.00;99.90;;;;;;5099193;28;20116;-63
2024/03/22 01:35:37;;;;;;;39.88;35.17;;;10.00;99.90;;;;;;5080664;28;20382;-64
2024/03/22 01:38:02;;;;;;;43.17;35.45;;;10.10;99.90;;;;;;5096678;28;20051;-64
2024/03/22 01:40:28;;;;;;;40.10;35.72;;;10.00;99.90;;;;;;5093338;28;20078;-63
2024/03/22 01:42:57;;;;;;;42.53;34.28;;;10.10;99.90;;;;;;5094824;28;20036;-63
2024/03/22 01:45:24;;;;;;;40.92;35.88;;;10.00;99.90;;;;;;5079546;28;20056;-64
2024/03/22 01:47:54;;;;;;;41.15;36.40;;;10.10;99.90;;;;;;5095377;28;20086;-63
2024/03/22 01:50:21;;;;;;;40.25;35.35;;;10.10;99.90;;;;;;5097543;28;20031;-63
2024/03/22 01:52:47;;;;;;;43.85;36.45;;;10.10;99.90;;;;;;5097157;28;20051;-64
2024/03/22 01:55:13;;;;;;;42.60;35.88;;;10.20;99.90;;;;;;5081605;28;20126;-63
2024/03/22 01:57:39;;;;;;;41.17;36.13;;;10.10;99.90;;;;;;5078624;28;20109;-63
2024/03/22 02:00:06;;;;;;;48.00;38.88;;;10.10;99.90;;;;;;5079123;28;20055;-63
2024/03/22 02:02:32;;;;;;;47.22;38.55;;;10.20;99.90;;;;;;5080647;28;20055;-63
2024/03/22 02:04:58;;;;;;;45.60;38.65;;;10.20;99.90;;;;;;5080367;28;20076;-64
2024/03/22 02:07:24;;;;;;;44.95;36.60;;;10.20;99.90;;;;;;5064743;28;20039;-64
2024/03/22 02:09:50;;;;;;;49.00;37.47;;;10.20;99.90;;;;;;5082283;28;20478;-63
2024/03/22 02:12:16;;;;;;;41.40;35.70;;;10.30;99.90;;;;;;5080816;28;20050;-64
2024/03/22 02:14:42;;;;;;;44.30;37.17;;;10.30;99.90;;;;;;5094285;28;20108;-63
2024/03/22 02:17:14;;;;;;;46.72;37.72;;;10.30;99.90;;;;;;5060475;28;20494;-64
2024/03/22 02:19:40;;;;;;;43.65;37.78;;;10.30;99.90;;;;;;5094996;28;20032;-63
2024/03/22 02:22:06;;;;;;;44.95;37.80;;;10.30;99.90;;;;;;5095074;28;20036;-64
2024/03/22 02:24:46;;;;;;;44.70;37.35;;;10.40;99.90;;;;;;5097965;28;20050;-64
2024/03/22 02:27:12;;;;;;;46.90;38.13;;;10.40;99.90;;;;;;5092187;28;20115;-64
2024/03/22 02:29:37;;;;;;;46.80;38.70;;;10.40;99.90;;;;;;5080677;28;20127;-63
2024/03/22 02:32:04;;;;;;;48.90;38.15;;;10.40;99.90;;;;;;5090294;28;20041;-63
2024/03/22 02:34:29;;;;;;;46.08;40.03;;;10.40;99.90;;;;;;5066927;28;20147;-64
2024/03/22 02:36:55;;;;;;;49.45;38.70;;;10.50;99.90;;;;;;5095963;28;20130;-63
2024/03/22 02:39:21;;;;;;;49.65;38.88;;;10.40;99.90;;;;;;5090087;28;20044;-63
2024/03/22 02:41:46;;;;;;;50.70;38.50;;;10.50;99.90;;;;;;5098178;28;20448;-63
2024/03/22 02:44:12;;;;;;;46.42;39.60;;;10.80;99.90;;;;;;5096444;28;20039;-64
2024/03/22 02:46:38;;;;;;;47.20;38.53;;;10.40;99.90;;;;;;5075833;28;20041;-64
2024/03/22 02:49:04;;;;;;;48.95;37.35;;;10.50;99.90;;;;;;5081142;28;20126;-64
2024/03/22 02:51:30;;;;;;;50.85;40.00;;;10.40;99.90;;;;;;5080208;28;20127;-63
2024/03/22 02:53:55;;;;;;;49.97;38.10;;;10.50;99.90;;;;;;5096981;28;20044;-63
2024/03/22 02:56:21;;;;;;;49.10;39.95;;;10.40;99.90;;;;;;5094936;28;20085;-64
2024/03/22 02:58:49;;;;;;;46.28;38.83;;;10.40;99.90;;;;;;5097906;28;20036;-64
2024/03/22 03:01:21;;;;;;;52.38;40.80;;;10.50;99.90;;;;;;5096987;28;20448;-64
2024/03/22 03:03:46;;;;;;;47.67;39.47;;;10.50;99.90;;;;;;5078115;28;20124;-64
2024/03/22 03:06:16;;;;;;;50.45;40.70;;;10.50;99.90;;;;;;5095980;28;20035;-63
2024/03/22 03:08:42;;;;;;;50.55;39.28;;;10.40;99.90;;;;;;5095217;28;20040;-64
2024/03/22 03:11:14;;;;;;;53.20;41.22;;;10.50;99.90;;;;;;5095975;28;20496;-63
2024/03/22 03:13:40;;;;;;;51.03;39.30;;;10.40;99.90;;;;;;5075424;28;20035;-64
2024/03/22 03:16:18;;;;;;;51.33;40.60;;;10.40;99.90;;;;;;5092140;28;20111;-64
2024/03/22 03:18:47;;;;;;;51.92;41.05;;;10.40;99.90;;;;;;5091613;28;20032;-63
2024/03/22 03:21:12;;;;;;;49.83;38.60;;;10.40;99.90;;;;;;5091457;28;20471;-63
2024/03/22 03:23:38;;;;;;;53.10;39.45;;;10.50;99.90;;;;;;5097301;28;20039;-64
2024/03/22 03:26:05;;;;;;;50.78;40.35;;;10.50;99.90;;;;;;5093568;28;20035;-64
2024/03/22 03:28:31;;;;;;;53.15;39.90;;;10.50;99.90;;;;;;5079110;28;20040;-63
2024/03/22 03:30:56;;;;;;;51.53;39.47;;;10.50;99.90;;;;;;5066010;28;20396;-64
2024/03/22 03:33:22;;;;;;;51.38;40.30;;;10.50;99.90;;;;;;5093676;28;20036;-63
2024/03/22 03:35:48;;;;;;;51.05;39.83;;;10.60;99.90;;;;;;5092371;28;20054;-64
2024/03/22 03:38:13;;;;;;;51.65;40.20;;;10.50;99.90;;;;;;5076214;28;20075;-64
2024/03/22 03:40:39;;;;;;;55.65;40.58;;;10.70;99.90;;;;;;5095527;28;20493;-63
2024/03/22 03:43:05;;;;;;;52.88;40.85;;;10.60;99.90;;;;;;5094621;28;20046;-63
2024/03/22 03:45:31;;;;;;;53.58;40.13;;;10.50;99.90;;;;;;5095295;28;20048;-64
2024/03/22 03:47:56;;;;;;;50.63;38.33;;;10.60;99.90;;;;;;5109127;27;20046;-63
2024/03/22 03:50:22;;;;;;;52.72;40.22;;;10.60;99.90;;;;;;5078319;28;20108;-63
2024/03/22 03:52:48;;;;;;;53.45;37.97;;;10.60;99.90;;;;;;5095766;28;20096;-64
2024/03/22 03:55:14;;;;;;;53.33;38.75;;;10.60;99.90;;;;;;5077789;28;20491;-64
2024/03/22 03:57:41;;;;;;;53.88;40.67;;;10.60;99.90;;;;;;5094609;28;20032;-63
2024/03/22 04:00:07;;;;;;;54.28;40.22;;;10.60;99.90;;;;;;5094742;28;20043;-63
2024/03/22 04:02:33;;;;;;;51.08;39.92;;;10.60;99.90;;;;;;5092846;28;20032;-63
2024/03/22 04:04:58;;;;;;;56.42;39.63;;;10.60;99.90;;;;;;5078049;28;20047;-64
2024/03/22 04:07:24;;;;;;;57.40;39.85;;;10.60;99.90;;;;;;5060881;28;20386;-64
2024/03/22 04:09:50;;;;;;;54.70;40.33;;;10.60;99.90;;;;;;5079147;28;20043;-64
2024/03/22 04:12:17;;;;;;;51.55;37.53;;;10.60;99.90;;;;;;5091583;28;20104;-64
2024/03/22 04:14:42;;;;;;;52.47;39.00;;;10.60;99.90;;;;;;5074907;28;20482;-63
2024/03/22 04:17:08;;;;;;;51.45;37.80;;;10.60;99.90;;;;;;5076895;28;20129;-64
2024/03/22 04:19:34;;;;;;;52.50;38.33;;;10.60;99.90;;;;;;5078504;28;20059;-64
2024/03/22 04:22:00;;;;;;;54.28;36.53;;;10.60;99.90;;;;;;5075858;28;20050;-63
2024/03/22 04:24:26;;;;;;;50.35;37.50;;;10.60;99.90;;;;;;5092712;28;20473;-64
2024/03/22 04:26:51;;;;;;;51.55;36.05;;;10.60;99.90;;;;;;5080189;28;20141;-63
2024/03/22 04:29:17;;;;;;;54.65;39.33;;;10.60;99.90;;;;;;5093323;28;20032;-64
2024/03/22 04:31:43;;;;;;;55.15;37.95;;;10.60;99.90;;;;;;5093758;28;20513;-64
2024/03/22 04:34:10;;;;;;;50.80;36.80;;;10.70;99.90;;;;;;5091423;28;20066;-63
2024/03/22 04:36:40;;;;;;;51.65;35.78;;;10.60;99.90;;;;;;5094443;28;20044;-63
2024/03/22 04:39:06;;;;;;;51.40;36.85;;;10.60;99.90;;;;;;5095754;28;20034;-64
2024/03/22 04:41:32;;;;;;;52.53;35.33;;;10.60;99.90;;;;;;5076300;28;20040;-64
2024/03/22 04:43:58;;;;;;;54.30;38.35;;;10.60;99.90;;;;;;5094409;28;20100;-64
2024/03/22 04:46:23;;;;;;;52.53;36.10;;;10.70;99.90;;;;;;5090781;28;20041;-64
2024/03/22 04:48:49;;;;;;;58.05;36.67;;;10.70;99.90;;;;;;5089657;28;20044;-63
2024/03/22 04:51:15;;;;;;;50.35;34.75;;;10.70;99.90;;;;;;5098658;28;20632;-64
2024/03/22 04:53:41;;;;;;;52.75;37.53;;;10.70;99.90;;;;;;5079075;28;20043;-64
2024/03/22 04:56:07;;;;;;;52.72;34.75;;;10.70;99.90;;;;;;5097109;28;20040;-64
2024/03/22 04:58:34;;;;;;;54.72;36.28;;;10.70;99.90;;;;;;5101759;28;20032;-64
2024/03/22 05:01:00;;;;;;;52.65;34.85;;;10.60;99.90;;;;;;5097535;28;20114;-64
2024/03/22 05:03:25;;;;;;;53.65;35.20;;;10.70;99.90;;;;;;5096826;28;20040;-63
2024/03/22 05:05:51;;;;;;;51.17;34.00;;;10.60;99.90;;;;;;5097636;28;20065;-63
2024/03/22 05:08:17;;;;;;;51.78;35.03;;;10.60;99.90;;;;;;5097828;28;20044;-63
2024/03/22 05:10:43;;;;;;;50.67;34.25;;;10.60;99.90;;;;;;5094901;28;20036;-64
2024/03/22 05:13:08;;;;;;;46.65;34.28;;;10.70;99.90;;;;;;5095623;28;20036;-64
2024/03/22 05:15:34;;;;;;;48.58;31.95;;;10.60;99.90;;;;;;5098281;28;20031;-63
2024/03/22 05:18:00;;;;;;;50.13;33.20;;;10.60;99.90;;;;;;5095705;28;20024;-64
2024/03/22 05:20:26;;;;;;;46.60;31.95;;;10.60;99.90;;;;;;5093249;28;20032;-64
2024/03/22 05:22:52;;;;;;;48.17;32.35;;;10.60;99.90;;;;;;5098833;28;20436;-64
2024/03/22 05:25:19;;;;;;;48.75;32.05;;;10.50;99.90;;;;;;5100394;28;20036;-64
2024/03/22 05:27:46;;;;;;;50.70;32.28;;;10.50;99.90;;;;;;5096380;28;20057;-63
2024/03/22 05:30:13;;;;;;;47.28;31.48;;;10.50;99.90;;;;;;5094011;28;20403;-64
2024/03/22 05:32:40;;;;;;;48.15;31.52;;;10.60;99.90;;;;;;5092441;28;20587;-64
2024/03/22 05:35:05;;;;;;;49.35;32.38;;;10.60;99.90;;;;;;5079724;28;20043;-63
2024/03/22 05:37:31;;;;;;;45.30;30.65;;;10.50;99.90;;;;;;5091217;28;20054;-63
2024/03/22 05:39:57;;;;;;;48.75;29.38;;;10.60;99.90;;;;;;5091208;28;20039;-63
2024/03/22 05:42:23;;;;;;;48.25;32.53;;;10.50;99.90;;;;;;5080967;28;20043;-64
2024/03/22 05:44:49;;;;;;;42.53;28.67;;;10.50;99.90;;;;;;5077115;28;20100;-64
2024/03/22 05:47:15;;;;;;;47.10;31.48;;;10.60;99.90;;;;;;5079319;28;20044;-64
2024/03/22 05:49:41;;;;;;;45.13;30.70;;;10.50;99.90;;;;;;5079321;28;20044;-64
2024/03/22 05:52:07;;;;;;;49.50;31.05;;;10.60;99.90;;;;;;5067310;28;20543;-64
2024/03/22 05:54:32;;;;;;;43.53;30.05;;;10.50;99.90;;;;;;5096974;28;20073;-64
2024/03/22 05:56:58;;;;;;;38.50;28.63;;;10.50;99.90;;;;;;5096714;28;20046;-64
2024/03/22 05:59:24;;;;;;;41.78;28.38;;;10.50;99.90;;;;;;5062270;28;20028;-64
2024/03/22 06:01:50;;;;;;;40.63;29.30;;;10.50;99.90;;;;;;5095668;28;20145;-64
2024/03/22 06:04:15;;;;;;;43.67;30.02;;;10.50;99.90;;;;;;5073294;28;20047;-64
2024/03/22 06:06:41;;;;;;;44.97;29.80;;;10.50;99.90;;;;;;5076765;28;20127;-64
2024/03/22 06:09:10;;;;;;;40.00;28.65;;;10.50;99.90;;;;;;5091594;28;20730;-64
2024/03/22 06:11:37;;;;;;;40.80;29.88;;;10.50;99.90;;;;;;5076069;28;20059;-65
2024/03/22 06:14:03;;;;;;;40.70;28.15;;;10.50;99.90;;;;;;5097321;28;20046;-64
2024/03/22 06:16:28;;;;;;;42.33;28.85;;;10.50;99.90;;;;;;5097643;28;20035;-64
2024/03/22 06:18:54;;;;;;;41.08;29.17;;;10.60;99.90;;;;;;5092382;28;20036;-64
2024/03/22 06:21:24;;;;;;;43.92;27.92;;;10.50;99.90;;;;;;5092333;28;20039;-64
2024/03/22 06:23:51;;;;;;;39.88;28.02;;;10.50;99.90;;;;;;5098153;28;20035;-64
2024/03/22 06:26:17;;;;;;;37.35;26.95;;;10.50;99.90;;;;;;5097175;28;20047;-64
2024/03/22 06:28:43;;;;;;;39.42;26.95;;;10.50;99.90;;;;;;5098352;28;20444;-64
2024/03/22 06:31:09;;;;;;;39.72;26.70;;;10.50;99.90;;;;;;5093122;28;20604;-64
2024/03/22 06:33:35;;;;;;;39.88;29.02;;;10.50;99.90;;;;;;5076615;28;20124;-63
2024/03/22 06:36:03;;;;;;;37.30;26.40;;;10.50;99.90;;;;;;5091578;28;20089;-63
2024/03/22 06:38:33;;;;;;;38.95;26.08;;;10.40;99.90;;;;;;5096162;28;20409;-64
2024/03/22 06:40:59;;;;;;;36.78;25.40;;;10.50;99.90;;;;;;5077382;28;20039;-63
2024/03/22 06:43:26;;;;;;;44.05;25.65;;;10.40;99.90;;;;;;5059427;28;20123;-63
2024/03/22 06:45:51;;;;;;;41.80;26.15;;;10.50;99.90;;;;;;5089370;28;20039;-64
2024/03/22 06:48:18;;;;;;;35.65;26.85;;;10.50;99.90;;;;;;5095310;28;20100;-63
2024/03/22 06:50:44;;;;;;;34.45;24.63;;;10.50;99.90;;;;;;5077483;28;20039;-63
2024/03/22 06:53:11;;;;;;;38.42;23.92;;;10.50;99.90;;;;;;5080267;28;20044;-64
2024/03/22 06:55:37;;;;;;;37.85;24.90;;;10.50;99.90;;;;;;5082859;28;20035;-64
2024/03/22 06:58:02;;;;;;;38.63;25.30;;;10.50;99.90;;;;;;5094301;28;20039;-64
2024/03/22 07:00:28;;;;;;;32.58;23.02;;;10.50;99.90;;;;;;5093719;28;20115;-64
2024/03/22 07:02:57;;;;;;;33.60;23.05;;;10.50;99.90;;;;;;5075782;28;20470;-64
2024/03/22 07:05:23;;;;;;;29.52;21.25;;;10.40;99.90;;;;;;5094190;28;20064;-64
2024/03/22 07:07:55;;;;;;;37.88;23.13;;;10.50;99.90;;;;;;5090554;28;20074;-65
2024/03/22 07:10:23;;;;;;;32.60;22.45;;;10.50;99.90;;;;;;5077761;28;20135;-64
2024/03/22 07:12:48;;;;;;;29.10;20.73;;;10.50;99.90;;;;;;5073832;28;20133;-64
2024/03/22 07:15:14;;;;;;;33.15;20.92;;;10.50;99.90;;;;;;5078055;28;20048;-64
2024/03/22 07:17:40;;;;;;;30.50;20.63;;;10.50;99.90;;;;;;5077216;28;20382;-64
2024/03/22 07:20:06;;;;;;;31.20;19.60;;;10.50;99.90;;;;;;5094944;28;20039;-64
2024/03/22 07:22:32;;;;;;;36.08;21.20;;;10.50;99.90;;;;;;5096592;28;20394;-64
2024/03/22 07:24:58;;;;;;;36.00;21.15;;;10.50;99.90;;;;;;5080818;28;20083;-64
2024/03/22 07:27:29;;;;;;;34.95;19.52;;;10.50;99.90;;;;;;5080745;28;20083;-64
2024/03/22 07:29:55;;;;;;;34.70;20.98;;;10.40;99.90;;;;;;5079018;28;20044;-64
2024/03/22 07:32:22;;;;;;;31.40;18.55;;;10.50;99.90;;;;;;5092475;28;20363;-65
2024/03/22 07:34:48;;;;;;;33.60;18.27;;;10.50;99.90;;;;;;5096904;28;20036;-64
2024/03/22 07:37:13;;;;;;;27.10;18.58;;;10.50;99.90;;;;;;5097246;28;20036;-64
2024/03/22 07:39:39;;;;;;;30.42;18.83;;;10.70;99.90;;;;;;5094266;28;20032;-64
2024/03/22 07:42:05;;;;;;;32.60;18.35;;;10.50;99.90;;;;;;5097766;28;20036;-64
2024/03/22 07:44:33;;;;;;;27.83;17.08;;;10.60;99.90;;;;;;5080586;28;20390;-64
2024/03/22 07:46:59;;;;;;;28.23;17.40;;;10.50;99.90;;;;;;5076888;28;20036;-64
2024/03/22 07:49:25;;;;;;;24.50;17.17;;;10.50;99.90;;;;;;5097882;28;20036;-64
2024/03/22 07:51:50;;;;;;;32.03;17.33;;;10.50;99.90;;;;;;5095817;28;20118;-64
2024/03/22 07:54:16;;;;;;;25.23;15.15;;;10.60;99.90;;;;;;5061555;28;20082;-64
2024/03/22 07:56:42;;;;;;;29.05;16.58;;;10.60;99.90;;;;;;5073609;28;20626;-64
2024/03/22 07:59:08;;;;;;;27.15;14.40;;;10.60;99.90;;;;;;5075938;28;20052;-64
2024/03/22 08:01:34;;;;;;;30.33;15.55;;;10.60;99.90;;;;;;5076811;28;20112;-65
2024/03/22 08:04:01;;;;;;;26.15;14.73;;;10.60;99.90;;;;;;5066320;28;20528;-64
2024/03/22 08:06:26;;;;;;;30.25;14.40;;;10.60;99.90;;;;;;5081617;28;20052;-64
2024/03/22 08:08:52;;;;;;;25.80;16.15;;;10.60;99.90;;;;;;5088741;28;20112;-64
2024/03/22 08:11:18;;;;;;;26.50;14.63;;;10.60;99.90;;;;;;5092420;28;20035;-64
2024/03/22 08:13:44;;;;;;;30.20;15.38;;;10.60;99.90;;;;;;5093309;28;20445;-64
2024/03/22 08:16:09;;;;;;;25.33;14.18;;;10.50;99.90;;;;;;5090342;28;20428;-64
2024/03/22 08:18:35;;;;;;;25.92;13.98;;;10.60;99.90;;;;;;5091869;28;20051;-64
2024/03/22 08:21:02;;;;;;;29.52;15.73;;;10.50;99.90;;;;;;5093180;28;20042;-64
2024/03/22 08:23:27;;;;;;;32.50;15.43;;;10.60;99.90;;;;;;5074613;28;20093;-64
2024/03/22 08:25:53;;;;;;;26.90;16.38;;;10.50;99.90;;;;;;5087632;28;20043;-64
2024/03/22 08:28:19;;;;;;;26.90;15.32;;;10.50;99.90;;;;;;5071031;28;20048;-64
2024/03/22 08:30:45;;;;;;;25.95;15.63;;;10.50;99.90;;;;;;5095403;28;20063;-65
2024/03/22 08:33:14;;;;;;;31.75;15.77;;;10.50;99.90;;;;;;5093683;28;20044;-64
2024/03/22 08:35:39;;;;;;;32.25;15.93;;;10.50;99.90;;;;;;5090638;28;20195;-64
2024/03/22 08:38:10;;;;;;;24.90;15.20;;;10.50;99.90;;;;;;5096677;28;20043;-64
2024/03/22 08:40:39;;;;;;;26.25;15.98;;;10.60;99.90;;;;;;5065394;28;20697;-64
2024/03/22 08:43:09;;;;;;;26.65;15.52;;;10.50;99.90;;;;;;5094237;28;20039;-64
2024/03/22 08:45:36;;;;;;;25.63;15.07;;;10.50;99.90;;;;;;5090790;28;20059;-64
2024/03/22 08:48:02;;;;;;;29.38;15.75;;;10.50;99.90;;;;;;5078805;28;20051;-64
2024/03/22 08:50:28;;;;;;;23.55;15.48;;;10.50;99.90;;;;;;5093026;28;20035;-64
2024/03/22 08:52:54;;;;;;;26.90;15.85;;;10.40;99.90;;;;;;5075228;28;20501;-64
2024/03/22 08:55:20;;;;;;;27.85;16.10;;;10.50;99.90;;;;;;5074450;28;20050;-64
2024/03/22 08:57:45;;;;;;;27.73;16.25;;;10.40;99.90;;;;;;5071142;28;20127;-64
2024/03/22 09:00:12;;;;;;;26.50;16.30;;;10.50;99.90;;;;;;5092405;28;20078;-65
2024/03/22 09:02:38;;;;;;;23.10;14.68;;;10.40;99.90;;;;;;5095623;28;20409;-65
2024/03/22 09:05:05;;;;;;;25.60;14.73;;;10.40;99.90;;;;;;5074024;28;20048;-64
2024/03/22 09:07:31;;;;;;;21.73;14.70;;;10.40;99.90;;;;;;5057129;28;20046;-65
2024/03/22 09:09:57;;;;;;;21.13;13.52;;;10.40;99.90;;;;;;5097519;28;20032;-65
2024/03/22 09:12:23;;;;;;;26.67;14.30;;;10.40;99.90;;;;;;5085434;28;20036;-64
2024/03/22 09:14:49;;;;;;;23.15;13.43;;;10.40;99.90;;;;;;5092936;28;20032;-65
2024/03/22 09:17:14;;;;;;;23.55;13.27;;;10.40;99.90;;;;;;5072866;28;20059;-64
2024/03/22 09:19:41;;;;;;;20.67;12.43;;;10.40;99.90;;;;;;5076978;28;20331;-65
2024/03/22 09:22:07;;;;;;;21.90;12.45;;;10.50;99.90;;;;;;5094587;28;20032;-64
2024/03/22 09:24:33;;;;;;;19.17;12.57;;;10.50;99.90;;;;;;5093592;28;20036;-64
2024/03/22 09:26:59;;;;;;;21.30;13.13;;;10.50;99.90;;;;;;5092921;28;20043;-64
2024/03/22 09:29:25;;;;;;;21.52;13.05;;;10.50;99.90;;;;;;5093070;28;20085;-64
2024/03/22 09:31:53;;;;;;;21.10;12.75;;;10.50;99.90;;;;;;5073267;28;20121;-64
2024/03/22 09:34:19;;;;;;;16.45;11.48;;;10.50;99.90;;;;;;5096864;28;20035;-64
2024/03/22 09:36:46;;;;;;;15.88;12.02;;;10.50;99.90;;;;;;5098819;28;20534;-64
2024/03/22 09:39:12;;;;;;;18.83;12.15;;;10.50;99.90;;;;;;5101000;28;20047;-64
2024/03/22 09:41:43;;;;;;;17.02;10.48;;;10.50;99.90;;;;;;5095830;28;20108;-65
2024/03/22 09:44:13;;;;;;;17.45;11.13;;;10.50;99.90;;;;;;5095601;28;20052;-65
2024/03/22 09:46:39;;;;;;;14.35;9.82;;;10.50;99.90;;;;;;5093590;28;20046;-65
2024/03/22 09:49:06;;;;;;;13.85;10.02;;;10.50;99.90;;;;;;5080567;28;20066;-65
2024/03/22 09:51:32;;;;;;;13.65;11.40;;;10.60;99.90;;;;;;5098661;28;20028;-64
2024/03/22 09:53:58;;;;;;;14.30;10.07;;;10.60;99.90;;;;;;5098882;28;20037;-64
2024/03/22 09:56:25;;;;;;;13.45;9.65;;;10.60;99.90;;;;;;5096017;28;20058;-65
2024/03/22 09:58:51;;;;;;;13.45;9.82;;;10.60;99.90;;;;;;5098996;28;20042;-65
2024/03/22 10:01:18;;;;;;;11.32;9.23;;;10.60;99.90;;;;;;5083714;28;20035;-65
2024/03/22 10:03:44;;;;;;;11.85;8.55;;;10.60;99.90;;;;;;5095757;28;20044;-65
2024/03/22 10:06:10;;;;;;;13.85;8.98;;;10.60;99.90;;;;;;5100223;28;20082;-65
2024/03/22 10:08:36;;;;;;;10.55;8.57;;;10.60;99.90;;;;;;5100017;28;20465;-65
2024/03/22 10:11:03;;;;;;;12.25;8.70;;;10.60;99.90;;;;;;5081312;28;20055;-65
2024/03/22 10:13:29;;;;;;;13.68;8.82;;;10.60;99.90;;;;;;5081265;28;20058;-65
2024/03/22 10:15:56;;;;;;;11.32;8.40;;;10.60;99.90;;;;;;5099149;28;20031;-65
2024/03/22 10:18:22;;;;;;;10.57;7.78;;;10.70;99.90;;;;;;5080130;28;20114;-65
2024/03/22 10:20:58;;;;;;;13.10;7.45;;;10.70;99.90;;;;;;5079635;28;20044;-65
2024/03/22 10:23:26;;;;;;;8.10;6.90;;;10.70;99.90;;;;;;5079037;28;20715;-65
2024/03/22 10:25:51;;;;;;;10.40;7.28;;;10.60;99.90;;;;;;5075943;28;20122;-65
2024/03/22 10:28:17;;;;;;;8.20;7.40;;;10.70;99.90;;;;;;5099110;28;20124;-65
2024/03/22 10:30:47;;;;;;;11.18;6.57;;;10.70;99.90;;;;;;5079755;28;20047;-65
2024/03/22 10:33:14;;;;;;;8.95;6.57;;;10.70;99.90;;;;;;5099885;28;20032;-65
2024/03/22 10:35:41;;;;;;;6.70;5.97;;;10.70;99.90;;;;;;5079402;28;20071;-65
2024/03/22 10:38:07;;;;;;;8.20;6.03;;;10.70;99.90;;;;;;5096166;28;20454;-65
2024/03/22 10:40:35;;;;;;;8.43;6.22;;;10.70;99.90;;;;;;5076749;28;20020;-65
2024/03/22 10:43:02;;;;;;;7.35;5.65;;;10.70;99.90;;;;;;5092826;28;20494;-65
2024/03/22 10:45:29;;;;;;;7.32;5.72;;;10.70;99.90;;;;;;5080490;28;20135;-65
2024/03/22 10:47:56;;;;;;;7.97;5.07;;;10.80;99.90;;;;;;5079611;28;20039;-65
2024/03/22 10:50:26;;;;;;;7.10;5.72;;;10.80;99.90;;;;;;5059995;28;20101;-65
2024/03/22 10:52:57;;;;;;;7.97;5.15;;;10.80;99.90;;;;;;5095882;28;20390;-65
2024/03/22 10:55:30;;;;;;;5.57;4.38;;;10.80;99.90;;;;;;5050649;28;20518;-65
2024/03/22 10:58:00;;;;;;;5.60;4.97;;;10.90;99.90;;;;;;5078903;28;20059;-65
2024/03/22 11:00:29;;;;;;;5.90;4.38;;;10.90;99.90;;;;;;5096721;28;20073;-65
2024/03/22 11:02:55;;;;;;;8.98;5.85;;;11.00;99.90;;;;;;5097054;28;20425;-65
2024/03/22 11:05:26;;;;;;;4.78;4.15;;;11.00;99.90;;;;;;5083823;28;20101;-65
2024/03/22 11:08:05;;;;;;;5.78;4.20;;;11.00;99.90;;;;;;5075620;28;20126;-65
2024/03/22 11:10:34;;;;;;;5.13;4.18;;;11.00;99.90;;;;;;5079361;28;20557;-65
2024/03/22 11:13:06;;;;;;;4.63;4.18;;;11.00;99.90;;;;;;5078095;28;20047;-65
2024/03/22 11:15:32;;;;;;;5.90;4.28;;;11.00;99.90;;;;;;5060354;28;20127;-65
2024/03/22 11:17:59;;;;;;;6.60;4.13;;;11.00;99.90;;;;;;5098307;28;20032;-65
2024/03/22 11:20:25;;;;;;;4.07;3.38;;;11.00;99.90;;;;;;5096010;28;20034;-65
2024/03/22 11:22:52;;;;;;;3.65;3.35;;;11.00;99.90;;;;;;5091749;28;20079;-65
2024/03/22 11:25:22;;;;;;;3.65;3.28;;;11.00;99.90;;;;;;5095021;28;20514;-65
2024/03/22 11:27:48;;;;;;;3.78;2.70;;;11.00;99.90;;;;;;5076584;28;20039;-65
2024/03/22 11:30:15;;;;;;;4.40;3.45;;;11.00;99.90;;;;;;5072490;28;20054;-65
2024/03/22 11:32:45;;;;;;;4.07;3.05;;;11.00;99.90;;;;;;5089417;28;20089;-65
2024/03/22 11:35:12;;;;;;;5.28;3.05;;;11.00;99.90;;;;;;5072001;28;20046;-65
2024/03/22 11:37:41;;;;;;;3.08;2.63;;;11.00;99.90;;;;;;5057459;28;20068;-65
2024/03/22 11:40:11;;;;;;;3.10;2.47;;;11.00;99.90;;;;;;5073780;28;20486;-65
2024/03/22 11:42:42;;;;;;;3.08;2.83;;;11.10;99.90;;;;;;5090416;28;20061;-65
2024/03/22 11:45:14;;;;;;;3.22;2.92;;;11.10;99.90;;;;;;5072390;28;20375;-63
2024/03/22 11:47:39;;;;;;;3.53;2.70;;;11.10;99.90;;;;;;5093433;28;20066;-63
2024/03/22 11:50:06;;;;;;;4.88;3.42;;;11.10;99.90;;;;;;5076660;28;20193;-63
2024/03/22 11:52:32;;;;;;;3.58;2.70;;;11.20;99.90;;;;;;5087620;28;20047;-63
2024/03/22 11:54:58;;;;;;;4.15;3.30;;;11.20;99.90;;;;;;5093645;28;20043;-63
2024/03/22 11:57:25;;;;;;;3.05;2.75;;;11.20;99.90;;;;;;5077572;28;20043;-63
2024/03/22 12:00:12;;;;;;;4.63;2.97;;;11.20;99.90;;;;;;5088923;28;20040;-63
2024/03/22 12:02:38;;;;;;;2.92;2.33;;;11.20;99.90;;;;;;5092330;28;20055;-63
2024/03/22 12:05:05;;;;;;;3.95;2.67;;;11.10;99.90;;;;;;5091658;28;20895;-63
2024/03/22 12:07:32;;;;;;;5.15;2.70;;;11.20;99.90;;;;;;5073027;28;20044;-63
2024/03/22 12:09:58;;;;;;;3.55;2.05;;;11.20;99.90;;;;;;5092524;28;20067;-63
2024/03/22 12:12:27;;;;;;;2.25;1.25;;;11.10;99.90;;;;;;5074245;28;20467;-64
2024/03/22 12:15:00;;;;;;;3.05;1.08;;;11.00;99.90;;;;;;5095740;28;20123;-63
2024/03/22 12:17:26;;;;;;;3.50;1.30;;;11.00;99.90;;;;;;5073011;28;20048;-63
2024/03/22 12:19:52;;;;;;;4.65;1.63;;;10.80;99.90;;;;;;5033444;28;20043;-63
2024/03/22 12:22:22;;;;;;;4.15;1.63;;;10.80;99.90;;;;;;5093666;28;20036;-63
2024/03/22 12:24:47;;;;;;;4.45;1.40;;;10.80;99.90;;;;;;5072075;28;20042;-63
2024/03/22 12:27:13;;;;;;;4.95;1.67;;;10.80;99.90;;;;;;5090338;28;20039;-63